Time;durP1;ratioP1;P1;durP2;ratioP2;P2;SDS_P1;SDS_P2;PMS_P1;PMS_P2;Temp;Humidity;BMP_temperature;BMP_pressure;BME280_temperature;BME280_humidity;BME280_pressure;Samples;Min_cycle;Max_cycle;Signal;HPM_P1;HPM_P2
2023/02/27 00:02:01;;;;;;;;;;;;;;;12.44;55.03;92597.25;5009303;28;19987;-51
2023/02/27 00:04:26;;;;;;;;;;;;;;;12.35;55.53;92597.94;5008820;28;20367;-50
2023/02/27 00:06:52;;;;;;;;;;;;;;;12.33;55.58;92602.59;5008899;28;19917;-51
2023/02/27 00:09:17;;;;;;;;;;;;;;;12.23;56.30;92613.66;5008972;28;19929;-52
2023/02/27 00:11:42;;;;;;;;;;;;;;;12.23;57.19;92610.16;5008744;28;20419;-54
2023/02/27 00:14:08;;;;;;;;;;;;;;;12.00;59.33;92616.06;5009070;28;19917;-53
2023/02/27 00:16:33;;;;;;;;;;;;;;;11.70;61.94;92609.00;5009035;28;20328;-53
2023/02/27 00:19:00;;;;;;;;;;;;;;;11.50;65.47;92623.28;5008672;28;20325;-51
2023/02/27 00:21:26;;;;;;;;;;;;;;;11.06;70.21;92617.81;5008639;28;20408;-52
2023/02/27 00:23:51;;;;;;;;;;;;;;;10.72;72.61;92620.63;5008765;28;19922;-53
2023/02/27 00:26:16;;;;;;;;;;;;;;;10.33;76.08;92606.47;5008915;28;19921;-52
2023/02/27 00:28:41;;;;;;;;;;;;;;;10.30;77.17;92609.66;5013586;28;20367;-53
2023/02/27 00:31:07;;;;;;;;;;;;;;;10.23;77.58;92608.44;5027848;28;20020;-52
2023/02/27 00:33:32;;;;;;;;;;;;;;;10.10;78.58;92605.94;5018599;28;20063;-52
2023/02/27 00:35:58;;;;;;;;;;;;;;;10.07;78.56;92598.09;5008348;28;19925;-51
2023/02/27 00:38:24;;;;;;;;;;;;;;;10.14;79.13;92598.03;5008789;28;20536;-52
2023/02/27 00:40:49;;;;;;;;;;;;;;;10.16;79.16;92594.69;5008504;28;19924;-52
2023/02/27 00:43:14;;;;;;;;;;;;;;;10.08;79.70;92589.25;5008579;28;19925;-53
2023/02/27 00:45:40;;;;;;;;;;;;;;;10.11;79.09;92592.94;5008378;28;20489;-52
2023/02/27 00:48:05;;;;;;;;;;;;;;;10.20;78.42;92606.78;5008162;28;19914;-51
2023/02/27 00:50:30;;;;;;;;;;;;;;;10.22;77.95;92598.69;5027958;28;19917;-51
2023/02/27 00:52:55;;;;;;;;;;;;;;;10.06;80.24;92613.16;5016993;28;20455;-51
2023/02/27 00:55:21;;;;;;;;;;;;;;;10.11;79.15;92601.94;5007969;28;20012;-52
2023/02/27 00:57:46;;;;;;;;;;;;;;;9.99;80.55;92600.16;5008686;28;19953;-52
2023/02/27 01:00:11;;;;;;;;;;;;;;;9.99;80.90;92614.69;5008215;28;19928;-51
2023/02/27 01:02:37;;;;;;;;;;;;;;;9.98;80.30;92627.03;5007670;28;20504;-52
2023/02/27 01:05:03;;;;;;;;;;;;;;;9.99;80.28;92624.97;5008131;28;19924;-51
2023/02/27 01:07:28;;;;;;;;;;;;;;;9.97;80.61;92600.75;5008069;28;19917;-52
2023/02/27 01:09:53;;;;;;;;;;;;;;;9.87;81.74;92599.91;5008251;28;19928;-52
2023/02/27 01:12:18;;;;;;;;;;;;;;;9.68;83.58;92599.72;5008164;28;20381;-51
2023/02/27 01:14:44;;;;;;;;;;;;;;;9.62;84.19;92596.44;5008209;28;19918;-52
2023/02/27 01:17:09;;;;;;;;;;;;;;;9.56;84.22;92599.44;5007977;28;19920;-51
2023/02/27 01:19:34;;;;;;;;;;;;;;;9.46;84.61;92589.59;5008322;28;19921;-51
2023/02/27 01:22:00;;;;;;;;;;;;;;;9.34;84.70;92581.03;5007950;28;19968;-51
2023/02/27 01:24:25;;;;;;;;;;;;;;;9.24;86.26;92582.22;5007870;28;19914;-50
2023/02/27 01:26:51;;;;;;;;;;;;;;;9.31;85.02;92587.69;5015458;28;19924;-51
2023/02/27 01:29:16;;;;;;;;;;;;;;;9.24;85.23;92599.47;5027896;28;19917;-52
2023/02/27 01:31:42;;;;;;;;;;;;;;;9.18;85.53;92609.97;5026864;28;20508;-52
2023/02/27 01:34:07;;;;;;;;;;;;;;;9.10;85.46;92615.50;5012660;28;19988;-53
2023/02/27 01:36:32;;;;;;;;;;;;;;;9.04;85.92;92625.28;5007535;28;19917;-51
2023/02/27 01:38:57;;;;;;;;;;;;;;;9.12;85.10;92632.22;5007876;28;19917;-52
2023/02/27 01:41:23;;;;;;;;;;;;;;;9.25;82.61;92636.00;5007961;28;20389;-51
2023/02/27 01:44:01;;;;;;;;;;;;;;;9.40;80.87;92636.63;5007467;28;19932;-52
2023/02/27 01:46:27;;;;;;;;;;;;;;;9.49;80.01;92633.28;5007792;28;19913;-51
2023/02/27 01:48:58;;;;;;;;;;;;;;;9.99;76.17;92644.28;5007741;28;19918;-51
2023/02/27 01:51:23;;;;;;;;;;;;;;;10.01;75.79;92623.13;5008020;28;19918;-53
2023/02/27 01:53:50;;;;;;;;;;;;;;;10.21;74.62;92621.31;5021181;28;20318;-52
2023/02/27 01:56:26;;;;;;;;;;;;;;;10.13;74.76;92626.91;5006616;28;20008;-52
2023/02/27 01:58:52;;;;;;;;;;;;;;;10.26;73.51;92637.66;5006162;28;20000;-52
2023/02/27 02:01:18;;;;;;;;;;;;;;;10.23;73.80;92649.81;5007892;28;19914;-50
2023/02/27 02:04:02;;;;;;;;;;;;;;;10.17;73.44;92652.06;5007846;28;19928;-51
2023/02/27 02:06:28;;;;;;;;;;;;;;;10.15;74.16;92635.34;5007515;28;19917;-52
2023/02/27 02:08:54;;;;;;;;;;;;;;;10.25;73.45;92635.44;5007482;28;19921;-51
2023/02/27 02:11:19;;;;;;;;;;;;;;;10.32;73.20;92634.63;5006502;28;19917;-52
2023/02/27 02:13:44;;;;;;;;;;;;;;;10.19;73.87;92643.97;5006544;28;19970;-52
2023/02/27 02:16:16;;;;;;;;;;;;;;;10.18;73.72;92655.56;5008861;28;19921;-51
2023/02/27 02:18:46;;;;;;;;;;;;;;;10.23;72.88;92644.28;5011343;28;19971;-53
2023/02/27 02:21:37;;;;;;;;;;;;;;;10.26;73.15;92648.69;5010057;28;19970;-54
2023/02/27 02:24:21;;;;;;;;;;;;;;;10.23;72.69;92640.78;4995231;28;19921;-53
2023/02/27 02:26:49;;;;;;;;;;;;;;;10.28;72.33;92653.63;5011104;28;20350;-51
2023/02/27 02:29:20;;;;;;;;;;;;;;;10.58;70.21;92656.09;5010795;28;20401;-51
2023/02/27 02:32:04;;;;;;;;;;;;;;;10.42;71.22;92661.03;5019567;28;20595;-52
2023/02/27 02:34:48;;;;;;;;;;;;;;;10.41;71.10;92659.56;5012748;28;19926;-53
2023/02/27 02:37:32;;;;;;;;;;;;;;;10.50;70.12;92658.19;5010973;28;19941;-51
2023/02/27 02:40:30;;;;;;;;;;;;;;;10.45;69.94;92659.91;5010430;28;20320;-52
2023/02/27 02:43:04;;;;;;;;;;;;;;;10.62;69.01;92661.94;4987814;28;20040;-52
2023/02/27 02:45:37;;;;;;;;;;;;;;;10.54;69.32;92666.81;5010626;28;19932;-51
2023/02/27 02:48:08;;;;;;;;;;;;;;;10.51;69.58;92665.16;5010346;28;19953;-51
2023/02/27 02:50:33;;;;;;;;;;;;;;;10.47;69.32;92670.38;5009226;28;19988;-51
2023/02/27 02:53:01;;;;;;;;;;;;;;;10.64;68.09;92664.84;5010325;28;20413;-53
2023/02/27 02:55:30;;;;;;;;;;;;;;;10.67;67.73;92674.78;5018876;28;20290;-52
2023/02/27 02:58:01;;;;;;;;;;;;;;;10.76;67.71;92701.75;5010174;28;19979;-52
2023/02/27 03:00:28;;;;;;;;;;;;;;;10.53;70.00;92869.56;5008747;28;19917;-51
2023/02/27 03:02:54;;;;;;;;;;;;;;;9.73;71.79;92973.63;5009165;28;19972;-55
2023/02/27 03:05:46;;;;;;;;;;;;;;;8.19;80.52;92971.81;5009344;28;19917;-60
2023/02/27 03:08:13;;;;;;;;;;;;;;;7.79;87.63;92974.25;5006206;28;19952;-60
2023/02/27 03:10:43;;;;;;;;;;;;;;;7.74;89.04;92974.38;5008693;28;19913;-61
2023/02/27 03:13:20;;;;;;;;;;;;;;;7.57;92.86;92983.81;5008935;28;19967;-61
2023/02/27 03:15:55;;;;;;;;;;;;;;;7.48;92.88;92989.81;5009235;28;20317;-60
2023/02/27 03:18:23;;;;;;;;;;;;;;;7.50;93.50;92995.50;5009007;28;19914;-60
2023/02/27 03:20:53;;;;;;;;;;;;;;;7.51;93.74;92988.00;5011030;28;19975;-60
2023/02/27 03:23:26;;;;;;;;;;;;;;;7.33;95.25;92959.50;5029500;28;19917;-60
2023/02/27 03:25:52;;;;;;;;;;;;;;;7.56;94.13;92978.84;5028121;28;19928;-60
2023/02/27 03:28:18;;;;;;;;;;;;;;;7.59;93.91;92988.78;5010023;28;19917;-60
2023/02/27 03:30:55;;;;;;;;;;;;;;;7.42;94.44;92996.72;5008326;28;19925;-60
2023/02/27 03:33:22;;;;;;;;;;;;;;;7.48;96.07;93000.78;5013197;28;19914;-60
2023/02/27 03:35:50;;;;;;;;;;;;;;;7.53;95.34;92999.19;5008522;28;19922;-60
2023/02/27 03:38:15;;;;;;;;;;;;;;;7.71;92.40;92986.47;5009311;28;20456;-60
2023/02/27 03:40:59;;;;;;;;;;;;;;;7.58;93.98;92993.53;5009897;28;20013;-60
2023/02/27 03:43:27;;;;;;;;;;;;;;;7.54;94.75;93006.88;5009156;28;19917;-60
2023/02/27 03:45:54;;;;;;;;;;;;;;;7.58;94.25;93015.50;5009654;28;19925;-60
2023/02/27 03:48:20;;;;;;;;;;;;;;;7.65;91.91;93006.59;5007607;28;19976;-59
2023/02/27 03:50:45;;;;;;;;;;;;;;;7.36;94.84;93002.34;5008105;28;19965;-60
2023/02/27 03:53:24;;;;;;;;;;;;;;;7.53;91.82;92955.97;5009287;28;19913;-59
2023/02/27 03:55:49;;;;;;;;;;;;;;;7.43;93.02;92940.50;5020873;28;19913;-60
2023/02/27 03:58:15;;;;;;;;;;;;;;;7.32;94.27;92946.31;5008203;28;19944;-60
2023/02/27 04:00:40;;;;;;;;;;;;;;;7.19;95.74;92977.34;5009508;28;19924;-60
2023/02/27 04:03:05;;;;;;;;;;;;;;;7.17;97.03;92996.34;5009247;28;19918;-60
2023/02/27 04:05:31;;;;;;;;;;;;;;;7.19;97.26;92993.81;5009346;28;19918;-60
2023/02/27 04:08:11;;;;;;;;;;;;;;;7.15;97.78;93003.66;5007854;28;20436;-60
2023/02/27 04:10:37;;;;;;;;;;;;;;;7.14;98.39;92999.44;5009242;28;20530;-60
2023/02/27 04:13:07;;;;;;;;;;;;;;;7.13;100.00;93001.44;5009224;28;19920;-60
2023/02/27 04:15:35;;;;;;;;;;;;;;;7.19;100.00;93007.53;5007542;28;19921;-60
2023/02/27 04:18:03;;;;;;;;;;;;;;;6.99;100.00;93002.81;5008978;28;20306;-60
2023/02/27 04:20:40;;;;;;;;;;;;;;;6.84;100.00;93002.69;5008815;28;19928;-59
2023/02/27 04:23:07;;;;;;;;;;;;;;;6.92;100.00;93011.72;5007747;28;20304;-60
2023/02/27 04:25:38;;;;;;;;;;;;;;;6.86;100.00;93011.13;5007542;28;19918;-60
2023/02/27 04:28:16;;;;;;;;;;;;;;;6.82;100.00;93010.72;5024826;28;20012;-60
2023/02/27 04:30:47;;;;;;;;;;;;;;;6.79;100.00;92992.56;5027092;28;19921;-60
2023/02/27 04:33:31;;;;;;;;;;;;;;;6.92;100.00;93017.19;5015420;28;19921;-60
2023/02/27 04:36:16;;;;;;;;;;;;;;;6.77;100.00;93006.81;5027850;28;19925;-59
2023/02/27 04:39:00;;;;;;;;;;;;;;;6.74;100.00;93021.59;5013513;28;20378;-60
2023/02/27 04:41:29;;;;;;;;;;;;;;;6.73;100.00;93025.63;5028427;28;19928;-60
2023/02/27 04:43:55;;;;;;;;;;;;;;;6.80;100.00;93018.72;5027079;28;20363;-60
2023/02/27 04:46:21;;;;;;;;;;;;;;;6.97;97.03;93015.59;5027642;28;19921;-59
2023/02/27 04:48:50;;;;;;;;;;;;;;;6.99;97.19;93024.03;5023073;28;20393;-59
2023/02/27 04:51:16;;;;;;;;;;;;;;;7.03;98.60;93027.91;5007429;28;19913;-59
2023/02/27 04:53:46;;;;;;;;;;;;;;;7.10;96.85;93043.72;5008473;28;20493;-59
2023/02/27 04:56:16;;;;;;;;;;;;;;;7.07;97.67;93052.28;5008359;28;19917;-60
2023/02/27 04:58:55;;;;;;;;;;;;;;;6.99;99.68;93051.47;5007051;28;19924;-59
2023/02/27 05:01:32;;;;;;;;;;;;;;;6.91;100.00;93056.88;5007343;28;19918;-59
2023/02/27 05:03:57;;;;;;;;;;;;;;;6.82;100.00;93076.56;5007174;28;19924;-60
2023/02/27 05:06:24;;;;;;;;;;;;;;;6.91;100.00;93078.81;5007862;28;19921;-60
2023/02/27 05:08:52;;;;;;;;;;;;;;;6.81;100.00;93075.06;5007065;28;20566;-60
2023/02/27 05:11:20;;;;;;;;;;;;;;;6.89;100.00;93090.34;5008022;28;19913;-60
2023/02/27 05:13:48;;;;;;;;;;;;;;;6.85;100.00;93095.44;5009375;28;19960;-59
2023/02/27 05:16:17;;;;;;;;;;;;;;;6.91;100.00;93113.78;5006811;28;20393;-59
2023/02/27 05:18:43;;;;;;;;;;;;;;;6.62;100.00;93124.63;5008108;28;20021;-60
2023/02/27 05:21:11;;;;;;;;;;;;;;;6.77;100.00;93122.06;5007722;28;20337;-60
2023/02/27 05:23:47;;;;;;;;;;;;;;;6.83;100.00;93122.66;5006940;28;19918;-60
2023/02/27 05:26:19;;;;;;;;;;;;;;;6.70;100.00;93125.44;5006621;28;20413;-59
2023/02/27 05:28:44;;;;;;;;;;;;;;;6.81;100.00;93127.94;5006278;28;19928;-60
2023/02/27 05:31:14;;;;;;;;;;;;;;;6.73;100.00;93123.66;5011395;28;19913;-59
2023/02/27 05:33:42;;;;;;;;;;;;;;;6.56;100.00;93123.97;5022822;28;20425;-60
2023/02/27 05:36:13;;;;;;;;;;;;;;;6.51;100.00;93124.13;5006377;28;19921;-60
2023/02/27 05:38:52;;;;;;;;;;;;;;;6.63;100.00;93136.31;5006820;28;20291;-59
2023/02/27 05:41:19;;;;;;;;;;;;;;;6.66;100.00;93157.97;5007901;28;20372;-60
2023/02/27 05:43:53;;;;;;;;;;;;;;;6.56;100.00;93165.13;5006859;28;19914;-59
2023/02/27 05:46:22;;;;;;;;;;;;;;;6.74;100.00;93171.75;5006498;28;19924;-60
2023/02/27 05:48:55;;;;;;;;;;;;;;;6.80;100.00;93175.84;5006210;28;19928;-60
2023/02/27 05:51:20;;;;;;;;;;;;;;;6.89;100.00;93166.44;5010649;28;19937;-60
2023/02/27 05:53:50;;;;;;;;;;;;;;;7.13;100.00;93160.66;5010182;28;20409;-60
2023/02/27 05:56:16;;;;;;;;;;;;;;;7.22;100.00;93164.97;5026484;28;20373;-60
2023/02/27 05:58:45;;;;;;;;;;;;;;;7.37;100.00;93162.38;5010332;28;19921;-60
2023/02/27 06:01:10;;;;;;;;;;;;;;;7.38;100.00;93169.34;5010154;28;19918;-60
2023/02/27 06:03:36;;;;;;;;;;;;;;;7.44;98.93;93173.44;5011443;28;19929;-60
2023/02/27 06:06:05;;;;;;;;;;;;;;;7.56;96.65;93169.16;5010388;28;20596;-60
2023/02/27 06:08:31;;;;;;;;;;;;;;;7.49;96.54;93164.31;5010091;28;20071;-60
2023/02/27 06:10:56;;;;;;;;;;;;;;;7.32;99.37;93166.72;5011298;28;20016;-60
2023/02/27 06:13:22;;;;;;;;;;;;;;;7.44;99.42;93165.19;5011322;28;19929;-61
2023/02/27 06:15:47;;;;;;;;;;;;;;;7.65;98.27;93165.19;5010952;28;19913;-60
2023/02/27 06:18:13;;;;;;;;;;;;;;;7.72;97.54;93167.28;5011477;28;20003;-60
2023/02/27 06:20:39;;;;;;;;;;;;;;;7.85;96.64;93160.97;5011113;28;20419;-60
2023/02/27 06:23:05;;;;;;;;;;;;;;;8.17;95.19;93167.63;5011159;28;19914;-60
2023/02/27 06:25:30;;;;;;;;;;;;;;;8.88;94.88;93155.91;5011286;28;19913;-60
2023/02/27 06:27:55;;;;;;;;;;;;;;;9.91;89.70;93169.00;5010794;28;19917;-61
2023/02/27 06:30:21;;;;;;;;;;;;;;;11.02;81.23;93178.22;5010710;28;19926;-60
2023/02/27 06:32:46;;;;;;;;;;;;;;;11.44;76.40;93182.66;5024396;28;20309;-60
2023/02/27 06:35:11;;;;;;;;;;;;;;;11.37;76.57;93179.91;5010405;28;19991;-60
2023/02/27 06:37:36;;;;;;;;;;;;;;;11.56;73.53;93169.13;5010790;28;19914;-60
2023/02/27 06:40:04;;;;;;;;;;;;;;;12.26;71.36;93163.28;5010850;28;19917;-60
2023/02/27 06:42:30;;;;;;;;;;;;;;;12.70;69.34;93171.75;5010403;28;19944;-59
2023/02/27 06:44:55;;;;;;;;;;;;;;;12.65;69.62;93173.44;5010872;28;19914;-60
2023/02/27 06:47:20;;;;;;;;;;;;;;;13.05;67.87;93166.97;5010750;28;19918;-60
2023/02/27 06:49:45;;;;;;;;;;;;;;;13.06;66.82;93169.16;5024112;28;19917;-60
2023/02/27 06:52:11;;;;;;;;;;;;;;;13.34;65.99;93165.88;5030282;28;20459;-60
2023/02/27 06:54:36;;;;;;;;;;;;;;;13.69;63.92;93174.84;5024369;28;19921;-60
2023/02/27 06:57:01;;;;;;;;;;;;;;;13.26;65.53;93172.81;5010493;28;20299;-60
2023/02/27 06:59:26;;;;;;;;;;;;;;;12.62;67.20;93176.63;5010745;28;19917;-60
2023/02/27 07:01:52;;;;;;;;;;;;;;;12.12;69.26;93178.72;5009881;28;20607;-60
2023/02/27 07:04:17;;;;;;;;;;;;;;;11.83;71.28;93172.84;5009876;28;20463;-60
2023/02/27 07:06:43;;;;;;;;;;;;;;;11.85;71.59;93175.03;5019703;28;19956;-60
2023/02/27 07:09:08;;;;;;;;;;;;;;;11.78;71.49;93175.84;5030065;28;19921;-60
2023/02/27 07:11:34;;;;;;;;;;;;;;;11.65;72.63;93173.31;5029772;28;19963;-60
2023/02/27 07:13:59;;;;;;;;;;;;;;;11.37;73.81;93175.13;5030014;28;19920;-60
2023/02/27 07:16:24;;;;;;;;;;;;;;;11.33;73.78;93182.31;5030010;28;19944;-60
2023/02/27 07:18:49;;;;;;;;;;;;;;;11.36;74.00;93187.47;5028677;28;20309;-60
2023/02/27 07:21:15;;;;;;;;;;;;;;;11.02;77.54;93187.22;5030040;28;20468;-60
2023/02/27 07:23:40;;;;;;;;;;;;;;;11.39;75.41;93193.94;5029958;28;19921;-60
2023/02/27 07:26:05;;;;;;;;;;;;;;;11.32;76.55;93194.69;5028474;28;19913;-60
2023/02/27 07:28:31;;;;;;;;;;;;;;;11.55;74.97;93200.09;5010104;28;20443;-60
2023/02/27 07:30:56;;;;;;;;;;;;;;;11.67;74.49;93201.91;5011656;28;20317;-60
2023/02/27 07:33:22;;;;;;;;;;;;;;;11.44;75.77;93209.53;5021039;28;19921;-60
2023/02/27 07:35:48;;;;;;;;;;;;;;;11.28;77.31;93203.34;5009509;28;19926;-60
2023/02/27 07:38:15;;;;;;;;;;;;;;;10.87;79.03;93211.44;5008814;28;20574;-60
2023/02/27 07:40:40;;;;;;;;;;;;;;;10.82;76.92;93218.63;5009315;28;19924;-60
2023/02/27 07:43:06;;;;;;;;;;;;;;;9.67;80.98;93221.16;5009842;28;19920;-59
2023/02/27 07:45:31;;;;;;;;;;;;;;;9.40;83.47;93239.28;5009399;28;20360;-60
2023/02/27 07:47:56;;;;;;;;;;;;;;;9.36;86.32;93252.66;5008875;28;19917;-60
2023/02/27 07:50:22;;;;;;;;;;;;;;;9.57;83.74;93256.78;5028144;28;19960;-59
2023/02/27 07:52:47;;;;;;;;;;;;;;;8.84;85.85;93246.38;5019454;28;19972;-60
2023/02/27 07:55:13;;;;;;;;;;;;;;;8.99;84.91;93240.94;5009084;28;19923;-59
2023/02/27 07:57:38;;;;;;;;;;;;;;;9.85;80.35;93239.41;5009221;28;19940;-60
2023/02/27 08:00:05;;;;;;;;;;;;;;;10.66;77.19;93244.78;5009273;28;19921;-60
2023/02/27 08:02:31;;;;;;;;;;;;;;;11.47;71.52;93249.16;5014706;28;19979;-60
2023/02/27 08:04:56;;;;;;;;;;;;;;;12.30;68.77;93254.25;5028775;28;19917;-60
2023/02/27 08:07:21;;;;;;;;;;;;;;;12.55;66.36;93252.22;5028902;28;19921;-60
2023/02/27 08:09:47;;;;;;;;;;;;;;;12.19;68.03;93253.38;5028597;28;20031;-60
2023/02/27 08:12:12;;;;;;;;;;;;;;;12.14;69.43;93251.59;5028491;28;19920;-59
2023/02/27 08:14:37;;;;;;;;;;;;;;;12.83;71.15;93249.00;5027996;28;19917;-59
2023/02/27 08:17:03;;;;;;;;;;;;;;;13.58;66.97;93270.41;5028717;28;19917;-60
2023/02/27 08:19:28;;;;;;;;;;;;;;;12.79;68.49;93262.53;5028449;28;19975;-59
2023/02/27 08:21:53;;;;;;;;;;;;;;;12.65;68.61;93248.25;5028145;28;19913;-60
2023/02/27 08:24:19;;;;;;;;;;;;;;;12.58;69.58;93251.78;5028680;28;19924;-59
2023/02/27 08:26:44;;;;;;;;;;;;;;;13.00;68.11;93254.56;5021942;28;19968;-60
2023/02/27 08:29:09;;;;;;;;;;;;;;;12.39;69.59;93245.34;5008290;28;19929;-60
2023/02/27 08:31:35;;;;;;;;;;;;;;;12.36;70.47;93252.72;5015844;28;19917;-59
2023/02/27 08:34:00;;;;;;;;;;;;;;;12.06;69.79;93261.25;5014842;28;20522;-60
2023/02/27 08:36:25;;;;;;;;;;;;;;;12.89;68.40;93252.28;5008081;28;19925;-60
2023/02/27 08:38:51;;;;;;;;;;;;;;;14.02;65.36;93245.44;5008593;28;19917;-59
2023/02/27 08:41:16;;;;;;;;;;;;;;;13.62;63.53;93251.31;5008283;28;19979;-60
2023/02/27 08:43:41;;;;;;;;;;;;;;;14.47;60.98;93254.44;5008723;28;20004;-60
2023/02/27 08:46:07;;;;;;;;;;;;;;;14.76;61.65;93264.34;5008415;28;19927;-60
2023/02/27 08:48:32;;;;;;;;;;;;;;;14.21;60.17;93275.34;5008170;28;19944;-59
2023/02/27 08:50:57;;;;;;;;;;;;;;;14.11;61.83;93286.41;5008509;28;19972;-60
2023/02/27 08:53:22;;;;;;;;;;;;;;;14.31;63.13;93284.50;5008276;28;20486;-60
2023/02/27 08:55:49;;;;;;;;;;;;;;;17.01;55.88;93281.88;5023817;28;19924;-59
2023/02/27 08:58:15;;;;;;;;;;;;;;;18.58;51.17;93286.56;5026200;28;19917;-60
2023/02/27 09:00:40;;;;;;;;;;;;;;;19.75;46.30;93280.28;5008428;28;19918;-59
2023/02/27 09:03:05;;;;;;;;;;;;;;;19.57;49.25;93277.19;5007956;28;20329;-60
2023/02/27 09:05:33;;;;;;;;;;;;;;;18.68;49.58;93281.56;5008485;28;20004;-59
2023/02/27 09:07:59;;;;;;;;;;;;;;;17.91;51.73;93292.78;5008355;28;19924;-59
2023/02/27 09:10:24;;;;;;;;;;;;;;;18.06;49.74;93281.88;5007596;28;20537;-59
2023/02/27 09:12:49;;;;;;;;;;;;;;;19.80;45.48;93279.19;5008330;28;19934;-59
2023/02/27 09:15:15;;;;;;;;;;;;;;;19.33;46.09;93286.94;5008297;28;19918;-59
2023/02/27 09:17:40;;;;;;;;;;;;;;;19.61;44.41;93285.81;5007989;28;19913;-59
2023/02/27 09:20:08;;;;;;;;;;;;;;;21.03;42.29;93286.75;5008335;28;20004;-59
2023/02/27 09:22:33;;;;;;;;;;;;;;;21.03;42.08;93291.63;5007965;28;19917;-59
2023/02/27 09:24:59;;;;;;;;;;;;;;;20.25;41.57;93285.25;5009830;28;20346;-59
2023/02/27 09:27:24;;;;;;;;;;;;;;;21.48;40.25;93289.78;5024236;28;19919;-59
2023/02/27 09:29:55;;;;;;;;;;;;;;;21.57;39.27;93296.56;5031543;28;20012;-59
2023/02/27 09:32:21;;;;;;;;;;;;;;;21.26;38.71;93294.25;5031483;28;19960;-59
2023/02/27 09:34:46;;;;;;;;;;;;;;;20.41;43.34;93291.75;5031696;28;19932;-59
2023/02/27 09:37:11;;;;;;;;;;;;;;;20.70;41.23;93296.84;5031780;28;19921;-59
2023/02/27 09:39:37;;;;;;;;;;;;;;;19.44;43.76;93296.69;5031693;28;20385;-59
2023/02/27 09:42:02;;;;;;;;;;;;;;;20.03;40.44;93298.00;5031924;28;19918;-59
2023/02/27 09:44:28;;;;;;;;;;;;;;;20.77;41.08;93296.53;5030360;28;20316;-58
2023/02/27 09:46:53;;;;;;;;;;;;;;;20.30;43.08;93304.47;5031333;28;19999;-58
2023/02/27 09:49:19;;;;;;;;;;;;;;;19.28;43.11;93302.03;5031715;28;19923;-58
2023/02/27 09:51:45;;;;;;;;;;;;;;;19.55;41.85;93295.94;5029001;28;19917;-58
2023/02/27 09:54:10;;;;;;;;;;;;;;;19.71;41.28;93299.66;5011593;28;19921;-59
2023/02/27 09:56:39;;;;;;;;;;;;;;;19.05;41.42;93306.91;5029180;28;20540;-59
2023/02/27 09:59:04;;;;;;;;;;;;;;;18.21;45.87;93331.03;5030330;28;19983;-58
2023/02/27 10:01:32;;;;;;;;;;;;;;;19.22;45.23;93326.13;5031504;28;20412;-58
2023/02/27 10:04:09;;;;;;;;;;;;;;;19.94;44.86;93324.84;5030112;28;20570;-58
2023/02/27 10:06:47;;;;;;;;;;;;;;;20.86;40.48;93317.34;5031171;28;19937;-58
2023/02/27 10:09:29;;;;;;;;;;;;;;;21.96;37.53;93314.00;5030951;28;20452;-58
2023/02/27 10:12:03;;;;;;;;;;;;;;;22.11;38.96;93316.16;5031194;28;19913;-58
2023/02/27 10:14:37;;;;;;;;;;;;;;;21.51;37.72;93319.44;5030861;28;19916;-58
2023/02/27 10:17:04;;;;;;;;;;;;;;;22.76;38.58;93316.50;5031117;28;20066;-58
2023/02/27 10:19:31;;;;;;;;;;;;;;;23.76;34.81;93317.50;5029844;28;19913;-58
2023/02/27 10:21:57;;;;;;;;;;;;;;;24.24;31.37;93311.13;5030887;28;19913;-58
2023/02/27 10:24:28;;;;;;;;;;;;;;;24.75;32.94;93319.56;5029469;28;19924;-58
2023/02/27 10:26:54;;;;;;;;;;;;;;;24.89;30.98;93317.28;5023536;28;20317;-58
2023/02/27 10:29:35;;;;;;;;;;;;;;;24.51;34.02;93313.66;5010701;28;20408;-58
2023/02/27 10:32:20;;;;;;;;;;;;;;;25.30;32.79;93316.72;5021666;28;20309;-57
2023/02/27 10:34:50;;;;;;;;;;;;;;;25.80;31.92;93310.09;5010829;28;19925;-58
2023/02/27 10:37:15;;;;;;;;;;;;;;;24.91;29.69;93314.53;5008396;28;20639;-58
2023/02/27 10:39:45;;;;;;;;;;;;;;;25.35;30.73;93310.56;5009776;28;20008;-58
2023/02/27 10:42:10;;;;;;;;;;;;;;;23.88;32.05;93303.94;5009531;28;19922;-58
2023/02/27 10:44:37;;;;;;;;;;;;;;;22.10;38.17;93311.91;5009539;28;19925;-58
2023/02/27 10:47:02;;;;;;;;;;;;;;;22.16;36.83;93300.22;5010593;28;19917;-58
2023/02/27 10:49:28;;;;;;;;;;;;;;;22.90;37.10;93298.16;5022094;28;19924;-57
2023/02/27 10:52:03;;;;;;;;;;;;;;;22.93;37.43;93296.91;5025508;28;19921;-58
2023/02/27 10:54:28;;;;;;;;;;;;;;;23.64;34.88;93286.72;5010876;28;19917;-58
2023/02/27 10:56:55;;;;;;;;;;;;;;;23.57;33.96;93285.00;5010475;28;20321;-58
2023/02/27 10:59:41;;;;;;;;;;;;;;;23.71;35.28;93282.06;5010249;28;19918;-58
2023/02/27 11:02:15;;;;;;;;;;;;;;;24.15;33.08;93283.22;5010521;28;19913;-57
2023/02/27 11:04:40;;;;;;;;;;;;;;;24.29;33.20;93272.50;5009991;28;19993;-57
2023/02/27 11:07:07;;;;;;;;;;;;;;;24.97;33.92;93271.69;5008870;28;19917;-57
2023/02/27 11:09:33;;;;;;;;;;;;;;;24.45;34.32;93265.41;5008942;28;20079;-57
2023/02/27 11:12:17;;;;;;;;;;;;;;;24.58;33.73;93269.47;5009824;28;20008;-57
2023/02/27 11:14:50;;;;;;;;;;;;;;;23.59;33.87;93278.69;5010071;28;19925;-57
2023/02/27 11:17:20;;;;;;;;;;;;;;;24.82;32.79;93281.69;5009809;28;19917;-57
2023/02/27 11:19:45;;;;;;;;;;;;;;;24.10;31.92;93274.56;5009734;28;19917;-57
2023/02/27 11:22:11;;;;;;;;;;;;;;;22.41;35.05;93278.25;5010258;28;19924;-57
2023/02/27 11:24:36;;;;;;;;;;;;;;;21.78;37.27;93287.78;5009854;28;19974;-58
2023/02/27 11:27:03;;;;;;;;;;;;;;;20.79;39.15;93273.47;5018604;28;19979;-57
2023/02/27 11:29:29;;;;;;;;;;;;;;;19.98;42.49;93283.03;5029865;28;20084;-57
2023/02/27 11:31:55;;;;;;;;;;;;;;;19.12;42.84;93283.53;5029051;28;19917;-57
2023/02/27 11:34:26;;;;;;;;;;;;;;;18.15;46.90;93289.44;5024720;28;19914;-57
2023/02/27 11:37:01;;;;;;;;;;;;;;;18.02;45.26;93289.28;5010083;28;19914;-57
2023/02/27 11:39:28;;;;;;;;;;;;;;;18.32;46.76;93291.19;5008080;28;19918;-57
2023/02/27 11:41:54;;;;;;;;;;;;;;;18.94;44.43;93285.97;5008457;28;19914;-56
2023/02/27 11:44:21;;;;;;;;;;;;;;;19.59;42.77;93282.16;5009742;28;19928;-56
2023/02/27 11:46:46;;;;;;;;;;;;;;;19.45;42.27;93282.06;5009123;28;19917;-56
2023/02/27 11:49:14;;;;;;;;;;;;;;;19.40;43.57;93288.78;5009375;28;20417;-56
2023/02/27 11:51:51;;;;;;;;;;;;;;;19.20;45.00;93290.34;5010044;28;19925;-57
2023/02/27 11:54:19;;;;;;;;;;;;;;;19.14;44.29;93297.66;5024860;28;19917;-56
2023/02/27 11:56:46;;;;;;;;;;;;;;;19.57;42.29;93298.84;5009578;28;19917;-57
2023/02/27 11:59:26;;;;;;;;;;;;;;;19.68;42.43;93293.22;5007978;28;20012;-56
2023/02/27 12:01:56;;;;;;;;;;;;;;;18.62;45.42;93295.19;5009359;28;19925;-57
2023/02/27 12:04:25;;;;;;;;;;;;;;;19.29;42.58;93297.91;5007965;28;19921;-56
2023/02/27 12:06:50;;;;;;;;;;;;;;;19.28;44.77;93302.03;5009102;28;19921;-57
2023/02/27 12:09:15;;;;;;;;;;;;;;;18.87;44.25;93303.72;5009401;28;19967;-56
2023/02/27 12:11:43;;;;;;;;;;;;;;;19.02;44.44;93294.84;5009315;28;19922;-56
2023/02/27 12:14:20;;;;;;;;;;;;;;;19.14;42.07;93304.00;5008038;28;20379;-56
2023/02/27 12:16:51;;;;;;;;;;;;;;;18.65;43.66;93297.50;5008332;28;20375;-56
2023/02/27 12:19:45;;;;;;;;;;;;;;;17.73;45.53;93299.97;5008846;28;19918;-56
2023/02/27 12:22:21;;;;;;;;;;;;;;;17.92;47.56;93303.34;4972216;28;19918;-56
2023/02/27 12:24:47;;;;;;;;;;;;;;;17.85;46.39;93297.94;5007881;28;19913;-56
2023/02/27 12:27:19;;;;;;;;;;;;;;;17.91;45.15;93293.47;5014721;28;19979;-56
2023/02/27 12:29:47;;;;;;;;;;;;;;;18.14;47.61;93298.44;5009025;28;19927;-56
2023/02/27 12:32:31;;;;;;;;;;;;;;;17.93;45.93;93302.00;5016394;28;19921;-56
2023/02/27 12:35:11;;;;;;;;;;;;;;;17.80;47.01;93308.13;5006996;28;20409;-55
2023/02/27 12:37:36;;;;;;;;;;;;;;;17.92;47.74;93308.91;5009229;28;19914;-56
2023/02/27 12:40:06;;;;;;;;;;;;;;;17.33;47.66;93317.53;5007266;28;20336;-56
2023/02/27 12:42:38;;;;;;;;;;;;;;;16.40;48.50;93310.41;5007605;28;20389;-54
2023/02/27 12:45:16;;;;;;;;;;;;;;;15.47;51.60;93312.09;5007291;28;19928;-56
2023/02/27 12:47:47;;;;;;;;;;;;;;;15.39;52.33;93308.69;5007276;28;19976;-56
2023/02/27 12:50:16;;;;;;;;;;;;;;;15.65;52.47;93295.97;5024696;28;19925;-55
2023/02/27 12:53:00;;;;;;;;;;;;;;;15.40;52.69;93298.28;5023471;28;19928;-55
2023/02/27 12:55:32;;;;;;;;;;;;;;;14.77;55.19;93304.00;5008326;28;19917;-55
2023/02/27 12:57:57;;;;;;;;;;;;;;;14.81;54.42;93302.22;5007605;28;19930;-55